createdAt,value
2022-10-05T00:00:53.309Z,98324.81
2022-10-05T00:03:28.752Z,98320.52
2022-10-05T00:06:02.593Z,98319.66
2022-10-05T00:08:36.790Z,98315.29
2022-10-05T00:11:10.980Z,98321.36
2022-10-05T00:13:44.588Z,98317.02
2022-10-05T00:16:20.967Z,98320.48
2022-10-05T00:18:56.084Z,98319.61
2022-10-05T00:21:30.456Z,98323.98
2022-10-05T00:24:03.779Z,98330.06
2022-10-05T00:26:37.399Z,98325.69
2022-10-05T00:29:18.886Z,98320.50
2022-10-05T00:31:52.889Z,98320.48
2022-10-05T00:34:26.612Z,98318.77
2022-10-05T00:36:59.902Z,98326.55
2022-10-05T00:39:34.722Z,98330.03
2022-10-05T00:42:16.919Z,98318.77
2022-10-05T00:44:53.733Z,98329.17
2022-10-05T00:47:37.152Z,98321.36
2022-10-05T00:50:19.293Z,98327.44
2022-10-05T00:52:57.015Z,98317.02
2022-10-05T00:55:35.344Z,98313.56
2022-10-05T00:58:14.498Z,98314.42
2022-10-05T01:00:50.889Z,98317.02
2022-10-05T01:03:27.378Z,98312.68
2022-10-05T01:06:05.866Z,98322.23
2022-10-05T01:08:44.433Z,98321.38
2022-10-05T01:11:22.460Z,98319.63
2022-10-05T01:14:02.577Z,98323.11
2022-10-05T01:16:39.111Z,98329.17
2022-10-05T01:19:18.125Z,98322.23
2022-10-05T01:21:54.303Z,98327.42
2022-10-05T01:24:48.286Z,98336.09
2022-10-05T01:27:43.668Z,98336.98
2022-10-05T01:30:20.112Z,98327.42
2022-10-05T01:32:57.185Z,98327.44
2022-10-05T01:35:37.554Z,98324.81
2022-10-05T01:38:21.396Z,98327.43
2022-10-05T01:40:58.987Z,98327.41
2022-10-05T01:43:37.236Z,98328.28
2022-10-05T01:46:14.847Z,98324.82
2022-10-05T01:48:52.371Z,98330.03
2022-10-05T01:51:29.527Z,98328.30
2022-10-05T01:54:05.418Z,98330.02
2022-10-05T01:56:42.918Z,98325.67
2022-10-05T01:59:21.120Z,98328.28
2022-10-05T02:01:59.288Z,98335.20
2022-10-05T02:05:00.956Z,98326.55
2022-10-05T02:07:15.289Z,98329.15
2022-10-05T02:09:52.123Z,98330.86
2022-10-05T02:12:29.600Z,98330.02
2022-10-05T02:15:07.472Z,98331.73
2022-10-05T02:17:44.298Z,98325.63
2022-10-05T02:20:20.937Z,98329.09
2022-10-05T02:22:57.600Z,98332.55
2022-10-05T02:25:34.625Z,98337.74
2022-10-05T02:28:11.504Z,98336.89
2022-10-05T02:30:48.378Z,98335.14
2022-10-05T02:33:26.146Z,98340.34
2022-10-05T02:36:03.723Z,98341.23
2022-10-05T02:38:41.269Z,98339.49
2022-10-05T02:41:18.442Z,98342.09
2022-10-05T02:43:55.154Z,98337.75
2022-10-05T02:46:34.242Z,98344.70
2022-10-05T02:49:10.104Z,98346.41
2022-10-05T02:51:48.143Z,98337.75
2022-10-05T02:54:23.803Z,98348.13
2022-10-05T02:56:59.781Z,98349.89
2022-10-05T02:59:36.917Z,98353.33
2022-10-05T03:02:13.554Z,98347.20
2022-10-05T03:04:50.552Z,98348.98
2022-10-05T03:07:27.075Z,98349.84
2022-10-05T03:10:04.379Z,98364.58
2022-10-05T03:12:51.470Z,98351.58
2022-10-05T03:15:45.261Z,98351.58
2022-10-05T03:18:28.559Z,98347.24
2022-10-05T03:21:04.335Z,98355.89
2022-10-05T03:23:41.545Z,98358.49
2022-10-05T03:26:25.652Z,98357.61
2022-10-05T03:29:02.678Z,98358.49
2022-10-05T03:31:39.485Z,98356.75
2022-10-05T03:34:16.110Z,98367.15
2022-10-05T03:36:52.771Z,98367.15
2022-10-05T03:39:28.872Z,98366.26
2022-10-05T03:42:07.478Z,98363.63
2022-10-05T03:44:48.437Z,98367.08
2022-10-05T03:47:26.942Z,98364.48
2022-10-05T03:50:10.862Z,98369.67
2022-10-05T03:52:48.256Z,98374.02
2022-10-05T03:55:27.518Z,98369.67
2022-10-05T03:58:03.050Z,98365.34
2022-10-05T04:00:38.365Z,98373.16
2022-10-05T04:03:15.672Z,98364.48
2022-10-05T04:05:53.070Z,98368.82
2022-10-05T04:08:30.507Z,98374.02
2022-10-05T04:11:07.660Z,98372.31
2022-10-05T04:13:44.230Z,98376.66
2022-10-05T04:16:20.865Z,98374.05
2022-10-05T04:18:58.363Z,98378.40
2022-10-05T04:21:32.132Z,98375.77
2022-10-05T04:24:08.698Z,98374.05
2022-10-05T04:26:45.604Z,98374.02
2022-10-05T04:29:23.390Z,98388.72
2022-10-05T04:32:04.973Z,98384.41
2022-10-05T04:34:46.120Z,98390.46
2022-10-05T04:40:09.975Z,98396.55
2022-10-05T04:42:47.556Z,98392.17
2022-10-05T04:45:26.143Z,98395.66
2022-10-05T04:48:18.162Z,98389.61
2022-10-05T04:51:02.391Z,98386.16
2022-10-05T04:53:38.852Z,98389.65
2022-10-05T04:56:15.254Z,98393.14
2022-10-05T04:59:04.084Z,98394.88
2022-10-05T05:01:46.115Z,98394.92
2022-10-05T05:04:35.642Z,98401.86
2022-10-05T05:07:15.997Z,98399.23
2022-10-05T05:10:14.162Z,98401.83
2022-10-05T05:12:52.247Z,98403.57
2022-10-05T05:15:35.232Z,98406.17
2022-10-05T05:18:24.701Z,98401.00
2022-10-05T05:21:01.409Z,98404.48
2022-10-05T05:23:38.696Z,98398.43
2022-10-05T05:26:15.372Z,98401.06
2022-10-05T05:28:53.692Z,98396.72
2022-10-05T05:31:31.385Z,98396.74
2022-10-05T05:34:07.692Z,98393.28
2022-10-05T05:36:51.614Z,98396.77
2022-10-05T05:39:28.436Z,98388.98
2022-10-05T05:42:05.663Z,98392.45
2022-10-05T05:44:44.203Z,98393.31
2022-10-05T05:47:21.909Z,98390.74
2022-10-05T05:50:07.449Z,98399.42
2022-10-05T05:52:45.541Z,98396.81
2022-10-05T05:55:29.693Z,98394.22
2022-10-05T05:58:02.932Z,98394.22
2022-10-05T06:00:41.246Z,98404.62
2022-10-05T06:03:18.323Z,98405.50
2022-10-05T06:05:55.832Z,98402.89
2022-10-05T06:08:32.850Z,98408.11
2022-10-05T06:11:12.050Z,98409.00
2022-10-05T06:13:46.120Z,98414.20
2022-10-05T06:16:23.926Z,98408.98
2022-10-05T06:18:57.647Z,98410.73
2022-10-05T06:21:33.980Z,98412.47
2022-10-05T06:24:12.760Z,98416.77
2022-10-05T06:30:11.443Z,98424.60
2022-10-05T06:32:57.686Z,98429.72
2022-10-05T06:35:38.628Z,98430.52
2022-10-05T06:38:24.528Z,98443.49
2022-10-05T06:41:03.595Z,98445.23
2022-10-05T06:43:50.674Z,98441.78
2022-10-05T06:46:45.660Z,98445.30
2022-10-05T06:49:42.636Z,98450.53
2022-10-05T06:52:39.593Z,98457.50
2022-10-05T06:55:19.777Z,98459.27
2022-10-05T06:58:01.473Z,98459.31
2022-10-05T07:00:38.957Z,98452.39
2022-10-05T07:03:17.350Z,98460.19
2022-10-05T07:05:56.368Z,98455.05
2022-10-05T07:08:37.951Z,98458.50
2022-10-05T07:11:16.633Z,98460.20
2022-10-05T07:14:03.894Z,98468.04
2022-10-05T07:16:46.245Z,98476.70
2022-10-05T07:19:35.324Z,98479.27
2022-10-05T07:22:22.336Z,98479.17
2022-10-05T07:25:01.000Z,98479.17
2022-10-05T07:27:37.417Z,98490.52
2022-10-05T07:30:15.045Z,98487.02
2022-10-05T07:32:55.151Z,98487.86
2022-10-05T07:35:51.446Z,98491.34
2022-10-05T07:38:28.057Z,98488.72
2022-10-05T07:41:05.520Z,98493.98
2022-10-05T07:44:01.584Z,98490.41
2022-10-05T07:46:24.513Z,98496.20
2022-10-05T07:49:06.229Z,98501.33
2022-10-05T07:51:44.426Z,98488.30
2022-10-05T07:54:21.747Z,98501.47
2022-10-05T07:56:59.259Z,98500.73
2022-10-05T07:59:38.807Z,98506.10
2022-10-05T08:02:17.867Z,98514.87
2022-10-05T08:04:54.823Z,98514.93
2022-10-05T08:07:30.133Z,98514.06
2022-10-05T08:10:07.395Z,98525.39
2022-10-05T08:12:44.346Z,98525.36
2022-10-05T08:15:20.860Z,98527.94
2022-10-05T08:17:57.215Z,98529.69
2022-10-05T08:20:42.245Z,98533.12
2022-10-05T08:23:26.337Z,98528.77
2022-10-05T08:26:06.144Z,98522.58
2022-10-05T08:28:42.741Z,98530.25
2022-10-05T08:31:21.123Z,98531.84
2022-10-05T08:33:59.643Z,98529.11
2022-10-05T08:36:42.102Z,98533.41
2022-10-05T08:39:18.357Z,98533.52
2022-10-05T08:42:21.029Z,98535.41
2022-10-05T08:45:35.843Z,98530.27
2022-10-05T08:48:32.519Z,98542.55
2022-10-05T08:51:30.998Z,98546.05
2022-10-05T08:57:48.524Z,98545.27
2022-10-05T09:00:23.530Z,98545.37
2022-10-05T09:03:39.954Z,98547.11
2022-10-05T09:06:59.859Z,98548.83
2022-10-05T09:09:59.545Z,98558.42
2022-10-05T09:12:46.919Z,98555.77
2022-10-05T09:15:44.361Z,98565.14
2022-10-05T09:18:31.467Z,98557.07
2022-10-05T09:21:09.802Z,98556.94
2022-10-05T09:23:44.617Z,98556.89
2022-10-05T09:26:46.473Z,98548.73
2022-10-05T09:29:42.812Z,98546.88
2022-10-05T09:35:34.632Z,98550.75
2022-10-05T09:38:23.459Z,98557.72
2022-10-05T09:41:21.221Z,98562.95
2022-10-05T09:44:08.973Z,98574.98
2022-10-05T09:46:54.045Z,98589.17
2022-10-05T09:49:46.788Z,98586.09
2022-10-05T09:52:27.469Z,98601.28
2022-10-05T09:55:46.950Z,98595.36
2022-10-05T09:58:42.966Z,98606.84
2022-10-05T10:01:33.510Z,98611.30
2022-10-05T10:04:19.041Z,98615.63
2022-10-05T10:07:38.678Z,98612.97
2022-10-05T10:10:34.216Z,98613.78
2022-10-05T10:13:23.738Z,98609.23
2022-10-05T10:16:13.054Z,98611.52
2022-10-05T10:19:24.987Z,98609.31
2022-10-05T10:22:10.948Z,98614.75
2022-10-05T10:25:13.931Z,98603.05
2022-10-05T10:27:57.161Z,98606.16
2022-10-05T10:30:48.418Z,98605.82
2022-10-05T10:34:02.410Z,98603.36
2022-10-05T10:36:54.461Z,98612.42
2022-10-05T10:39:32.966Z,98608.23
2022-10-05T10:42:36.225Z,98602.33
2022-10-05T10:45:21.277Z,98598.05
2022-10-05T10:48:00.860Z,98595.78
2022-10-05T10:51:20.348Z,98594.12
2022-10-05T10:54:20.125Z,98606.81
2022-10-05T10:57:08.882Z,98618.25
2022-10-05T11:00:37.334Z,98623.34
2022-10-05T11:03:50.415Z,98625.69
2022-10-05T11:06:46.766Z,98623.98
2022-10-05T11:09:36.640Z,98628.02
2022-10-05T11:12:45.875Z,98635.69
2022-10-05T11:16:01.062Z,98639.50
2022-10-05T11:18:45.300Z,98643.75
2022-10-05T11:21:30.229Z,98646.58
2022-10-05T11:24:30.613Z,98646.47
2022-10-05T11:27:31.930Z,98654.17
2022-10-05T11:30:35.442Z,98666.53
2022-10-05T11:33:56.816Z,98677.88
2022-10-05T11:37:20.439Z,98684.41
2022-10-05T11:40:13.259Z,98682.25
2022-10-05T11:43:08.004Z,98685.08
2022-10-05T11:45:51.399Z,98693.79
2022-10-05T11:48:44.297Z,98692.67
2022-10-05T11:51:39.783Z,98679.56
2022-10-05T11:57:40.633Z,98686.93
2022-10-05T12:00:20.343Z,98697.77
2022-10-05T12:03:36.006Z,98706.67
2022-10-05T12:06:31.189Z,98711.06
2022-10-05T12:09:11.829Z,98713.48
2022-10-05T12:11:57.949Z,98716.42
2022-10-05T12:14:37.417Z,98715.88
2022-10-05T12:17:17.411Z,98711.81
2022-10-05T12:19:55.756Z,98718.05
2022-10-05T12:22:36.188Z,98717.25
2022-10-05T12:25:27.668Z,98727.76
2022-10-05T12:28:05.490Z,98723.41
2022-10-05T12:30:47.496Z,98721.22
2022-10-05T12:33:27.269Z,98718.55
2022-10-05T12:36:05.972Z,98710.77
2022-10-05T12:38:45.004Z,98717.31
2022-10-05T12:41:22.463Z,98723.14
2022-10-05T12:44:04.932Z,98726.60
2022-10-05T12:46:42.490Z,98726.72
2022-10-05T12:49:57.266Z,98732.22
2022-10-05T12:52:48.682Z,98739.95
2022-10-05T12:55:26.992Z,98734.27
2022-10-05T12:58:09.222Z,98744.98
2022-10-05T13:00:47.537Z,98742.52
2022-10-05T13:03:24.750Z,98746.98
2022-10-05T13:06:04.241Z,98741.84
2022-10-05T13:08:41.956Z,98744.45
2022-10-05T13:11:18.670Z,98740.09
2022-10-05T13:13:57.219Z,98740.97
2022-10-05T13:16:36.153Z,98744.48
2022-10-05T13:19:34.368Z,98744.47
2022-10-05T13:22:16.961Z,98742.72
2022-10-05T13:24:58.440Z,98751.41
2022-10-05T13:27:35.472Z,98760.09
2022-10-05T13:30:15.301Z,98752.27
2022-10-05T13:32:52.346Z,98754.86
2022-10-05T13:35:32.742Z,98761.82
2022-10-05T13:38:10.439Z,98775.70
2022-10-05T13:40:46.729Z,98780.89
2022-10-05T13:43:23.484Z,98779.98
2022-10-05T13:46:00.665Z,98785.20
2022-10-05T13:48:48.925Z,98782.59
2022-10-05T13:51:25.315Z,98782.61
2022-10-05T13:54:04.894Z,98783.53
2022-10-05T13:56:41.092Z,98777.44
2022-10-05T13:59:18.836Z,98779.21
2022-10-05T14:01:58.866Z,98779.19
2022-10-05T14:04:35.915Z,98780.05
2022-10-05T14:07:18.921Z,98780.03
2022-10-05T14:09:53.203Z,98781.75
2022-10-05T14:12:28.315Z,98789.57
2022-10-05T14:15:04.654Z,98801.75
2022-10-05T14:17:42.201Z,98800.86
2022-10-05T14:20:25.670Z,98800.86
2022-10-05T14:23:01.830Z,98798.22
2022-10-05T14:25:38.108Z,98810.37
2022-10-05T14:28:24.343Z,98804.27
2022-10-05T14:31:02.137Z,98812.94
2022-10-05T14:33:37.161Z,98818.15
2022-10-05T14:36:16.346Z,98822.43
2022-10-05T14:38:57.954Z,98819.78
2022-10-05T14:41:33.395Z,98826.64
2022-10-05T14:44:19.001Z,98827.44
2022-10-05T14:46:55.639Z,98829.13
2022-10-05T14:49:31.768Z,98824.62
2022-10-05T14:52:25.813Z,98828.86
2022-10-05T14:55:02.289Z,98837.50
2022-10-05T14:57:39.358Z,98835.70
2022-10-05T15:00:17.138Z,98837.38
2022-10-05T15:03:19.138Z,98839.96
2022-10-05T15:05:55.061Z,98843.41
2022-10-05T15:08:41.629Z,98844.19
2022-10-05T15:11:18.127Z,98851.12
2022-10-05T15:13:52.368Z,98842.41
2022-10-05T15:16:29.032Z,98851.05
2022-10-05T15:19:05.372Z,98850.15
2022-10-05T15:21:44.045Z,98852.75
2022-10-05T15:24:20.857Z,98856.20
2022-10-05T15:26:57.183Z,98870.09
2022-10-05T15:29:55.059Z,98866.64
2022-10-05T15:32:40.560Z,98862.28
2022-10-05T15:35:55.458Z,98869.19
2022-10-05T15:38:32.177Z,98871.80
2022-10-05T15:41:16.301Z,98882.19
2022-10-05T15:44:09.477Z,98881.28
2022-10-05T15:46:48.160Z,98882.17
2022-10-05T15:49:26.728Z,98889.97
2022-10-05T15:52:05.890Z,98892.58
2022-10-05T15:55:04.679Z,98893.44
2022-10-05T15:57:42.039Z,98900.39
2022-10-05T16:00:18.973Z,98901.23
2022-10-05T16:02:55.922Z,98908.19
2022-10-05T16:05:53.964Z,98901.24
2022-10-05T16:08:52.259Z,98902.13
2022-10-05T16:11:32.750Z,98906.43
2022-10-05T16:14:13.852Z,98910.77
2022-10-05T16:16:51.303Z,98902.08
2022-10-05T16:19:28.316Z,98909.03
2022-10-05T16:22:06.380Z,98911.61
2022-10-05T16:25:05.771Z,98907.26
2022-10-05T16:27:46.635Z,98900.28
2022-10-05T16:30:23.598Z,98899.38
2022-10-05T16:33:02.192Z,98895.92
2022-10-05T16:35:40.446Z,98902.89
2022-10-05T16:38:21.549Z,98905.50
2022-10-05T16:41:02.104Z,98906.41
2022-10-05T16:44:00.087Z,98915.07
2022-10-05T16:46:36.286Z,98906.42
2022-10-05T16:49:14.626Z,98901.24
2022-10-05T16:51:51.964Z,98907.17
2022-10-05T16:54:31.709Z,98916.65
2022-10-05T16:57:09.020Z,98917.48
2022-10-05T17:00:12.044Z,98913.96
2022-10-05T17:03:23.131Z,98920.89
2022-10-05T17:06:11.101Z,98921.71
2022-10-05T17:12:12.165Z,98921.73
2022-10-05T17:14:58.778Z,98927.56
2022-10-05T17:17:49.158Z,98931.89
2022-10-05T17:20:42.944Z,98934.52
2022-10-05T17:23:30.874Z,98934.53
2022-10-05T17:26:12.442Z,98932.84
2022-10-05T17:28:48.822Z,98937.95
2022-10-05T17:31:28.290Z,98943.16
2022-10-05T17:34:29.655Z,98940.55
2022-10-05T17:37:25.151Z,98942.23
2022-10-05T17:43:08.460Z,98944.45
2022-10-05T17:45:59.290Z,98947.66
2022-10-05T17:48:45.668Z,98938.03
2022-10-05T17:55:10.042Z,98953.35
2022-10-05T17:57:44.300Z,98951.48
2022-10-05T18:03:50.656Z,98947.09
2022-10-05T18:06:54.543Z,98956.22
2022-10-05T18:09:41.352Z,98958.84
2022-10-05T18:12:51.904Z,98962.35
2022-10-05T18:15:56.443Z,98955.42
2022-10-05T18:18:58.588Z,98959.61
2022-10-05T18:21:40.696Z,98962.09
2022-10-05T18:24:55.280Z,98974.05
2022-10-05T18:30:49.194Z,98974.66
2022-10-05T18:34:07.737Z,98970.22
2022-10-05T18:37:19.461Z,98967.61
2022-10-05T18:40:07.158Z,98970.13
2022-10-05T18:42:46.348Z,98968.23
2022-10-05T18:45:28.186Z,98973.40
2022-10-05T18:48:11.988Z,98971.64
2022-10-05T18:50:54.015Z,98975.20
2022-10-05T18:53:32.410Z,98983.14
2022-10-05T18:56:18.255Z,98978.09
2022-10-05T18:58:57.177Z,98978.27
2022-10-05T19:01:50.279Z,98978.45
2022-10-05T19:04:42.118Z,98985.53
2022-10-05T19:07:22.621Z,98983.92
2022-10-05T19:10:18.907Z,98983.09
2022-10-05T19:13:02.767Z,98988.34
2022-10-05T19:18:48.595Z,98986.66
2022-10-05T19:21:28.105Z,98990.20
2022-10-05T19:27:13.272Z,98984.43
2022-10-05T19:30:07.362Z,98993.81
2022-10-05T19:32:46.393Z,98985.17
2022-10-05T19:35:32.032Z,98987.74
2022-10-05T19:41:08.310Z,98984.19
2022-10-05T19:43:50.908Z,98990.23
2022-10-05T19:46:28.443Z,98989.41
2022-10-05T19:49:03.023Z,98990.22
2022-10-05T19:51:40.992Z,98996.25
2022-10-05T19:54:21.763Z,98995.39
2022-10-05T19:56:57.861Z,98992.73
2022-10-05T19:59:37.057Z,98994.45
2022-10-05T20:02:13.610Z,98988.44
2022-10-05T20:04:49.683Z,99000.58
2022-10-05T20:07:24.587Z,98995.41
2022-10-05T20:10:00.183Z,98992.80
2022-10-05T20:12:56.689Z,98992.80
2022-10-05T20:15:49.336Z,98988.44
2022-10-05T20:18:59.351Z,98993.55
2022-10-05T20:21:44.939Z,98996.13
2022-10-05T20:24:20.549Z,98997.84
2022-10-05T20:27:06.084Z,99005.56
2022-10-05T20:29:40.711Z,99003.87
2022-10-05T20:32:18.136Z,99001.20
2022-10-05T20:34:53.372Z,99006.29
2022-10-05T20:37:27.294Z,99006.16
2022-10-05T20:40:00.793Z,99014.66
2022-10-05T20:42:34.920Z,99011.09
2022-10-05T20:45:10.353Z,99010.96
2022-10-05T20:47:45.443Z,99005.64
2022-10-05T20:50:21.261Z,99001.22
2022-10-05T20:52:54.750Z,99007.11
2022-10-05T20:55:29.594Z,99004.46
2022-10-05T20:58:03.989Z,99013.91
2022-10-05T21:00:56.349Z,99011.31
2022-10-05T21:03:29.830Z,99017.45
2022-10-05T21:06:03.363Z,98998.38
2022-10-05T21:08:38.299Z,99008.75
2022-10-05T21:11:11.934Z,99002.62
2022-10-05T21:13:46.279Z,98999.95
2022-10-05T21:16:20.748Z,99008.53
2022-10-05T21:18:54.196Z,99013.74
2022-10-05T21:21:28.252Z,99016.45
2022-10-05T21:24:01.721Z,99016.53
2022-10-05T21:26:37.110Z,99004.56
2022-10-05T21:29:12.678Z,99009.00
2022-10-05T21:31:46.296Z,99011.72
2022-10-05T21:34:19.714Z,99009.20
2022-10-05T21:36:53.011Z,99011.02
2022-10-05T21:39:26.988Z,99012.88
2022-10-05T21:42:00.446Z,99011.17
2022-10-05T21:44:33.718Z,99016.41
2022-10-05T21:47:07.768Z,99018.22
2022-10-05T21:49:42.617Z,99028.65
2022-10-05T21:52:16.084Z,99035.63
2022-10-05T21:54:49.644Z,99025.24
2022-10-05T21:57:23.273Z,99033.08
2022-10-05T21:59:56.714Z,99023.64
2022-10-05T22:02:30.096Z,99033.95
2022-10-05T22:05:03.672Z,99049.52
2022-10-05T22:07:36.984Z,99045.16
2022-10-05T22:10:11.901Z,99037.47
2022-10-05T22:12:46.945Z,99042.69
2022-10-05T22:15:20.667Z,99039.23
2022-10-05T22:17:54.153Z,99045.30
2022-10-05T22:20:28.301Z,99056.55
2022-10-05T22:23:01.892Z,99054.84
2022-10-05T22:25:35.893Z,99050.55
2022-10-05T22:28:11.825Z,99058.36
2022-10-05T22:30:46.421Z,99056.65
2022-10-05T22:33:19.767Z,99058.41
2022-10-05T22:35:53.197Z,99054.11
2022-10-05T22:38:27.313Z,99049.78
2022-10-05T22:41:00.957Z,99054.05
2022-10-05T22:43:34.162Z,99050.59
2022-10-05T22:46:12.348Z,99047.98
2022-10-05T22:48:46.304Z,99047.09
2022-10-05T22:51:19.658Z,99055.78
2022-10-05T22:53:52.971Z,99053.23
2022-10-05T22:56:26.269Z,99050.73
2022-10-05T22:58:59.992Z,99058.53
2022-10-05T23:01:33.562Z,99057.74
2022-10-05T23:04:08.896Z,99054.35
2022-10-05T23:06:42.786Z,99055.27
2022-10-05T23:09:16.429Z,99044.91
2022-10-05T23:11:51.557Z,99042.41
2022-10-05T23:14:25.134Z,99039.86
2022-10-05T23:16:58.646Z,99044.22
2022-10-05T23:19:32.171Z,99040.72
2022-10-05T23:22:06.395Z,99037.28
2022-10-05T23:24:39.971Z,99046.02
2022-10-05T23:27:13.803Z,99047.77
2022-10-05T23:29:47.463Z,99046.03
2022-10-05T23:32:21.296Z,99044.38
2022-10-05T23:34:54.915Z,99046.13
2022-10-05T23:37:29.210Z,99048.73
2022-10-05T23:40:02.740Z,99043.53
2022-10-05T23:42:36.054Z,99046.99
2022-10-05T23:45:12.335Z,99050.53
2022-10-05T23:47:47.370Z,99045.33
2022-10-05T23:50:21.537Z,99052.33
2022-10-05T23:52:55.021Z,99049.75
2022-10-05T23:55:28.877Z,99048.89
2022-10-05T23:58:02.534Z,99062.73
